sensor_id;sensor_type;location;lat;lon;timestamp;P1;durP1;ratioP1;P2;durP2;ratioP2
40755;SDS011;26461;45.630;9.418;2024-02-28T00:01:16;6.45;;;3.20;;
40755;SDS011;26461;45.630;9.418;2024-02-28T00:04:27;5.18;;;2.88;;
40755;SDS011;26461;45.630;9.418;2024-02-28T00:07:32;5.57;;;3.45;;
40755;SDS011;26461;45.630;9.418;2024-02-28T00:10:37;4.75;;;3.05;;
40755;SDS011;26461;45.630;9.418;2024-02-28T00:13:43;4.72;;;3.45;;
40755;SDS011;26461;45.630;9.418;2024-02-28T00:16:53;5.68;;;2.88;;
40755;SDS011;26461;45.630;9.418;2024-02-28T00:20:03;5.57;;;2.95;;
40755;SDS011;26461;45.630;9.418;2024-02-28T00:23:09;4.75;;;3.50;;
40755;SDS011;26461;45.630;9.418;2024-02-28T00:26:15;4.40;;;3.30;;
40755;SDS011;26461;45.630;9.418;2024-02-28T00:29:25;6.80;;;3.95;;
40755;SDS011;26461;45.630;9.418;2024-02-28T00:32:31;4.82;;;3.58;;
40755;SDS011;26461;45.630;9.418;2024-02-28T00:35:37;4.57;;;3.17;;
40755;SDS011;26461;45.630;9.418;2024-02-28T00:38:49;3.42;;;3.10;;
40755;SDS011;26461;45.630;9.418;2024-02-28T00:41:55;5.07;;;2.85;;
40755;SDS011;26461;45.630;9.418;2024-02-28T00:45:05;3.75;;;3.22;;
40755;SDS011;26461;45.630;9.418;2024-02-28T00:48:13;5.10;;;3.53;;
40755;SDS011;26461;45.630;9.418;2024-02-28T00:51:24;4.78;;;3.58;;
40755;SDS011;26461;45.630;9.418;2024-02-28T00:54:29;4.55;;;3.72;;
40755;SDS011;26461;45.630;9.418;2024-02-28T00:57:39;4.90;;;2.90;;
40755;SDS011;26461;45.630;9.418;2024-02-28T01:00:44;4.05;;;3.00;;
40755;SDS011;26461;45.630;9.418;2024-02-28T01:03:49;3.40;;;2.65;;
40755;SDS011;26461;45.630;9.418;2024-02-28T01:06:59;3.88;;;2.80;;
40755;SDS011;26461;45.630;9.418;2024-02-28T01:10:06;4.13;;;2.47;;
40755;SDS011;26461;45.630;9.418;2024-02-28T01:13:12;5.28;;;3.20;;
40755;SDS011;26461;45.630;9.418;2024-02-28T01:16:22;5.70;;;3.97;;
40755;SDS011;26461;45.630;9.418;2024-02-28T01:19:27;3.95;;;3.40;;
40755;SDS011;26461;45.630;9.418;2024-02-28T01:22:32;5.22;;;4.40;;
40755;SDS011;26461;45.630;9.418;2024-02-28T01:25:43;8.43;;;6.10;;
40755;SDS011;26461;45.630;9.418;2024-02-28T01:28:53;7.85;;;5.63;;
40755;SDS011;26461;45.630;9.418;2024-02-28T01:31:58;7.32;;;5.18;;
40755;SDS011;26461;45.630;9.418;2024-02-28T01:35:08;5.75;;;5.45;;
40755;SDS011;26461;45.630;9.418;2024-02-28T01:38:19;6.47;;;3.90;;
40755;SDS011;26461;45.630;9.418;2024-02-28T01:41:24;7.97;;;5.53;;
40755;SDS011;26461;45.630;9.418;2024-02-28T01:44:36;5.45;;;3.72;;
40755;SDS011;26461;45.630;9.418;2024-02-28T01:47:52;5.70;;;4.80;;
40755;SDS011;26461;45.630;9.418;2024-02-28T01:51:02;7.03;;;4.70;;
40755;SDS011;26461;45.630;9.418;2024-02-28T01:54:12;6.07;;;4.10;;
40755;SDS011;26461;45.630;9.418;2024-02-28T01:57:18;6.05;;;3.20;;
40755;SDS011;26461;45.630;9.418;2024-02-28T02:00:29;6.60;;;3.92;;
40755;SDS011;26461;45.630;9.418;2024-02-28T02:03:40;5.15;;;3.65;;
40755;SDS011;26461;45.630;9.418;2024-02-28T02:06:50;5.38;;;2.75;;
40755;SDS011;26461;45.630;9.418;2024-02-28T02:09:58;3.67;;;3.03;;
40755;SDS011;26461;45.630;9.418;2024-02-28T02:13:08;5.45;;;3.67;;
40755;SDS011;26461;45.630;9.418;2024-02-28T02:16:18;4.45;;;3.03;;
40755;SDS011;26461;45.630;9.418;2024-02-28T02:19:32;4.38;;;3.85;;
40755;SDS011;26461;45.630;9.418;2024-02-28T02:22:42;6.45;;;4.90;;
40755;SDS011;26461;45.630;9.418;2024-02-28T02:25:48;4.53;;;3.35;;
40755;SDS011;26461;45.630;9.418;2024-02-28T02:28:53;3.90;;;3.10;;
40755;SDS011;26461;45.630;9.418;2024-02-28T02:31:59;3.70;;;2.95;;
40755;SDS011;26461;45.630;9.418;2024-02-28T02:35:04;13.15;;;3.90;;
40755;SDS011;26461;45.630;9.418;2024-02-28T02:38:14;4.07;;;3.40;;
40755;SDS011;26461;45.630;9.418;2024-02-28T02:41:25;5.72;;;3.95;;
40755;SDS011;26461;45.630;9.418;2024-02-28T02:44:30;4.70;;;3.70;;
40755;SDS011;26461;45.630;9.418;2024-02-28T02:47:41;4.25;;;3.97;;
40755;SDS011;26461;45.630;9.418;2024-02-28T02:50:48;6.70;;;4.20;;
40755;SDS011;26461;45.630;9.418;2024-02-28T02:53:59;5.50;;;4.60;;
40755;SDS011;26461;45.630;9.418;2024-02-28T02:57:04;5.90;;;4.20;;
40755;SDS011;26461;45.630;9.418;2024-02-28T03:00:10;4.88;;;3.95;;
40755;SDS011;26461;45.630;9.418;2024-02-28T03:03:16;5.60;;;4.60;;
40755;SDS011;26461;45.630;9.418;2024-02-28T03:06:21;4.93;;;4.45;;
40755;SDS011;26461;45.630;9.418;2024-02-28T03:09:33;4.18;;;2.78;;
40755;SDS011;26461;45.630;9.418;2024-02-28T03:12:43;5.20;;;3.35;;
40755;SDS011;26461;45.630;9.418;2024-02-28T03:15:49;3.78;;;3.28;;
40755;SDS011;26461;45.630;9.418;2024-02-28T03:18:54;6.07;;;3.17;;
40755;SDS011;26461;45.630;9.418;2024-02-28T03:22:05;3.90;;;3.33;;
40755;SDS011;26461;45.630;9.418;2024-02-28T03:25:16;3.92;;;3.00;;
40755;SDS011;26461;45.630;9.418;2024-02-28T03:28:26;3.92;;;3.05;;
40755;SDS011;26461;45.630;9.418;2024-02-28T03:31:36;3.75;;;3.25;;
40755;SDS011;26461;45.630;9.418;2024-02-28T03:34:41;4.70;;;2.83;;
40755;SDS011;26461;45.630;9.418;2024-02-28T03:37:46;3.90;;;3.75;;
40755;SDS011;26461;45.630;9.418;2024-02-28T03:40:51;3.47;;;2.45;;
40755;SDS011;26461;45.630;9.418;2024-02-28T03:43:56;4.70;;;3.63;;
40755;SDS011;26461;45.630;9.418;2024-02-28T03:47:02;3.90;;;3.20;;
40755;SDS011;26461;45.630;9.418;2024-02-28T03:50:07;4.07;;;3.08;;
40755;SDS011;26461;45.630;9.418;2024-02-28T03:53:13;5.78;;;3.65;;
40755;SDS011;26461;45.630;9.418;2024-02-28T03:56:21;4.63;;;3.42;;
40755;SDS011;26461;45.630;9.418;2024-02-28T03:59:33;5.38;;;3.78;;
40755;SDS011;26461;45.630;9.418;2024-02-28T04:02:44;3.58;;;3.28;;
40755;SDS011;26461;45.630;9.418;2024-02-28T04:05:54;5.00;;;3.08;;
40755;SDS011;26461;45.630;9.418;2024-02-28T04:08:58;4.22;;;2.70;;
40755;SDS011;26461;45.630;9.418;2024-02-28T04:12:09;5.07;;;3.85;;
40755;SDS011;26461;45.630;9.418;2024-02-28T04:15:15;4.53;;;3.22;;
40755;SDS011;26461;45.630;9.418;2024-02-28T04:18:25;5.35;;;3.70;;
40755;SDS011;26461;45.630;9.418;2024-02-28T04:21:35;3.33;;;2.88;;
40755;SDS011;26461;45.630;9.418;2024-02-28T04:24:45;4.18;;;2.72;;
40755;SDS011;26461;45.630;9.418;2024-02-28T04:27:56;5.60;;;3.67;;
40755;SDS011;26461;45.630;9.418;2024-02-28T04:31:08;4.10;;;2.92;;
40755;SDS011;26461;45.630;9.418;2024-02-28T04:34:21;4.25;;;3.85;;
40755;SDS011;26461;45.630;9.418;2024-02-28T04:37:31;4.13;;;3.38;;
40755;SDS011;26461;45.630;9.418;2024-02-28T04:40:41;3.92;;;3.30;;
40755;SDS011;26461;45.630;9.418;2024-02-28T04:43:51;5.00;;;3.50;;
40755;SDS011;26461;45.630;9.418;2024-02-28T04:47:01;4.68;;;3.80;;
40755;SDS011;26461;45.630;9.418;2024-02-28T04:50:12;5.30;;;3.17;;
40755;SDS011;26461;45.630;9.418;2024-02-28T04:53:22;4.40;;;3.00;;
40755;SDS011;26461;45.630;9.418;2024-02-28T04:56:32;6.00;;;3.10;;
40755;SDS011;26461;45.630;9.418;2024-02-28T04:59:37;5.25;;;3.63;;
40755;SDS011;26461;45.630;9.418;2024-02-28T05:02:51;3.60;;;2.65;;
40755;SDS011;26461;45.630;9.418;2024-02-28T05:06:01;5.50;;;3.90;;
40755;SDS011;26461;45.630;9.418;2024-02-28T05:09:12;5.13;;;2.75;;
40755;SDS011;26461;45.630;9.418;2024-02-28T05:12:22;4.72;;;3.17;;
40755;SDS011;26461;45.630;9.418;2024-02-28T05:15:32;4.10;;;2.95;;
40755;SDS011;26461;45.630;9.418;2024-02-28T05:18:46;4.07;;;3.10;;
40755;SDS011;26461;45.630;9.418;2024-02-28T05:21:56;3.70;;;2.80;;
40755;SDS011;26461;45.630;9.418;2024-02-28T05:25:06;5.18;;;2.65;;
40755;SDS011;26461;45.630;9.418;2024-02-28T05:28:16;3.70;;;2.70;;
40755;SDS011;26461;45.630;9.418;2024-02-28T05:31:26;3.38;;;2.30;;
40755;SDS011;26461;45.630;9.418;2024-02-28T05:34:38;6.18;;;2.75;;
40755;SDS011;26461;45.630;9.418;2024-02-28T05:37:52;5.35;;;3.75;;
40755;SDS011;26461;45.630;9.418;2024-02-28T05:41:04;5.75;;;3.70;;
40755;SDS011;26461;45.630;9.418;2024-02-28T05:44:14;4.05;;;3.72;;
40755;SDS011;26461;45.630;9.418;2024-02-28T05:47:24;4.63;;;3.92;;
40755;SDS011;26461;45.630;9.418;2024-02-28T05:50:34;4.80;;;3.30;;
40755;SDS011;26461;45.630;9.418;2024-02-28T05:53:45;4.32;;;3.22;;
40755;SDS011;26461;45.630;9.418;2024-02-28T05:56:55;3.67;;;2.97;;
40755;SDS011;26461;45.630;9.418;2024-02-28T06:00:05;10.57;;;5.75;;
40755;SDS011;26461;45.630;9.418;2024-02-28T06:03:19;8.73;;;5.68;;
40755;SDS011;26461;45.630;9.418;2024-02-28T06:06:29;18.85;;;9.60;;
40755;SDS011;26461;45.630;9.418;2024-02-28T06:09:40;21.88;;;11.35;;
40755;SDS011;26461;45.630;9.418;2024-02-28T06:12:50;15.93;;;7.88;;
40755;SDS011;26461;45.630;9.418;2024-02-28T06:15:56;14.68;;;7.32;;
40755;SDS011;26461;45.630;9.418;2024-02-28T06:19:07;10.90;;;7.05;;
40755;SDS011;26461;45.630;9.418;2024-02-28T06:22:12;10.30;;;5.10;;
40755;SDS011;26461;45.630;9.418;2024-02-28T06:25:18;8.27;;;5.10;;
40755;SDS011;26461;45.630;9.418;2024-02-28T06:28:31;6.50;;;4.57;;
40755;SDS011;26461;45.630;9.418;2024-02-28T06:31:41;6.93;;;5.22;;
40755;SDS011;26461;45.630;9.418;2024-02-28T06:34:46;12.30;;;6.70;;
40755;SDS011;26461;45.630;9.418;2024-02-28T06:37:56;14.95;;;8.27;;
40755;SDS011;26461;45.630;9.418;2024-02-28T06:41:06;13.90;;;8.30;;
40755;SDS011;26461;45.630;9.418;2024-02-28T06:44:20;9.38;;;6.40;;
40755;SDS011;26461;45.630;9.418;2024-02-28T06:47:30;6.43;;;5.03;;
40755;SDS011;26461;45.630;9.418;2024-02-28T06:50:42;5.50;;;4.38;;
40755;SDS011;26461;45.630;9.418;2024-02-28T06:53:52;6.13;;;4.63;;
40755;SDS011;26461;45.630;9.418;2024-02-28T06:57:03;4.50;;;3.33;;
40755;SDS011;26461;45.630;9.418;2024-02-28T07:00:13;3.35;;;3.13;;
40755;SDS011;26461;45.630;9.418;2024-02-28T07:03:28;5.13;;;3.28;;
40755;SDS011;26461;45.630;9.418;2024-02-28T07:06:33;4.18;;;3.15;;
40755;SDS011;26461;45.630;9.418;2024-02-28T07:09:43;6.00;;;4.70;;
40755;SDS011;26461;45.630;9.418;2024-02-28T07:12:50;7.97;;;4.25;;
40755;SDS011;26461;45.630;9.418;2024-02-28T07:16:00;7.40;;;3.22;;
40755;SDS011;26461;45.630;9.418;2024-02-28T07:19:10;6.05;;;3.92;;
40755;SDS011;26461;45.630;9.418;2024-02-28T07:22:21;4.20;;;3.20;;
40755;SDS011;26461;45.630;9.418;2024-02-28T07:25:31;4.55;;;3.45;;
40755;SDS011;26461;45.630;9.418;2024-02-28T07:28:42;4.15;;;2.75;;
40755;SDS011;26461;45.630;9.418;2024-02-28T07:31:52;3.40;;;2.60;;
40755;SDS011;26461;45.630;9.418;2024-02-28T07:35:03;4.25;;;2.33;;
40755;SDS011;26461;45.630;9.418;2024-02-28T07:38:14;4.65;;;2.58;;
40755;SDS011;26461;45.630;9.418;2024-02-28T07:41:26;2.30;;;1.55;;
40755;SDS011;26461;45.630;9.418;2024-02-28T07:44:37;2.80;;;2.13;;
40755;SDS011;26461;45.630;9.418;2024-02-28T07:47:49;3.08;;;2.35;;
40755;SDS011;26461;45.630;9.418;2024-02-28T07:50:59;4.55;;;2.17;;
40755;SDS011;26461;45.630;9.418;2024-02-28T07:54:10;2.55;;;2.30;;
40755;SDS011;26461;45.630;9.418;2024-02-28T07:57:20;4.35;;;2.55;;
40755;SDS011;26461;45.630;9.418;2024-02-28T08:00:26;6.13;;;2.47;;
40755;SDS011;26461;45.630;9.418;2024-02-28T08:03:36;3.35;;;2.15;;
40755;SDS011;26461;45.630;9.418;2024-02-28T08:06:47;3.30;;;2.17;;
40755;SDS011;26461;45.630;9.418;2024-02-28T08:09:57;3.03;;;2.90;;
40755;SDS011;26461;45.630;9.418;2024-02-28T08:13:07;4.97;;;3.85;;
40755;SDS011;26461;45.630;9.418;2024-02-28T08:16:17;3.60;;;3.17;;
40755;SDS011;26461;45.630;9.418;2024-02-28T08:19:27;4.13;;;3.25;;
40755;SDS011;26461;45.630;9.418;2024-02-28T08:22:38;2.92;;;2.20;;
40755;SDS011;26461;45.630;9.418;2024-02-28T08:25:48;3.35;;;2.45;;
40755;SDS011;26461;45.630;9.418;2024-02-28T08:28:58;3.35;;;2.28;;
40755;SDS011;26461;45.630;9.418;2024-02-28T08:32:03;2.55;;;2.35;;
40755;SDS011;26461;45.630;9.418;2024-02-28T08:35:09;3.58;;;2.30;;
40755;SDS011;26461;45.630;9.418;2024-02-28T08:38:22;3.85;;;2.45;;
40755;SDS011;26461;45.630;9.418;2024-02-28T08:41:33;4.13;;;2.72;;
40755;SDS011;26461;45.630;9.418;2024-02-28T08:44:43;3.05;;;2.78;;
40755;SDS011;26461;45.630;9.418;2024-02-28T08:47:54;2.45;;;1.85;;
40755;SDS011;26461;45.630;9.418;2024-02-28T08:51:07;4.65;;;2.80;;
40755;SDS011;26461;45.630;9.418;2024-02-28T08:54:17;2.20;;;1.85;;
40755;SDS011;26461;45.630;9.418;2024-02-28T08:57:29;3.47;;;2.55;;
40755;SDS011;26461;45.630;9.418;2024-02-28T09:00:39;3.75;;;2.70;;
40755;SDS011;26461;45.630;9.418;2024-02-28T09:03:50;4.18;;;2.55;;
40755;SDS011;26461;45.630;9.418;2024-02-28T09:06:55;4.13;;;3.00;;
40755;SDS011;26461;45.630;9.418;2024-02-28T09:10:05;3.38;;;2.83;;
40755;SDS011;26461;45.630;9.418;2024-02-28T09:13:16;3.00;;;2.60;;
40755;SDS011;26461;45.630;9.418;2024-02-28T09:16:27;3.00;;;1.90;;
40755;SDS011;26461;45.630;9.418;2024-02-28T09:19:38;3.33;;;1.75;;
40755;SDS011;26461;45.630;9.418;2024-02-28T09:22:49;2.40;;;2.00;;
40755;SDS011;26461;45.630;9.418;2024-02-28T09:26:02;2.20;;;1.90;;
40755;SDS011;26461;45.630;9.418;2024-02-28T09:29:16;2.58;;;2.33;;
40755;SDS011;26461;45.630;9.418;2024-02-28T09:32:26;3.42;;;1.70;;
40755;SDS011;26461;45.630;9.418;2024-02-28T09:35:37;3.25;;;1.88;;
40755;SDS011;26461;45.630;9.418;2024-02-28T09:38:47;2.92;;;1.90;;
40755;SDS011;26461;45.630;9.418;2024-02-28T09:41:58;2.70;;;1.92;;
40755;SDS011;26461;45.630;9.418;2024-02-28T09:45:09;4.65;;;3.00;;
40755;SDS011;26461;45.630;9.418;2024-02-28T09:48:21;5.55;;;2.97;;
40755;SDS011;26461;45.630;9.418;2024-02-28T09:51:27;3.20;;;2.22;;
40755;SDS011;26461;45.630;9.418;2024-02-28T09:54:38;8.00;;;2.90;;
40755;SDS011;26461;45.630;9.418;2024-02-28T09:57:49;3.78;;;2.67;;
40755;SDS011;26461;45.630;9.418;2024-02-28T10:01:02;5.22;;;2.58;;
40755;SDS011;26461;45.630;9.418;2024-02-28T10:04:13;3.63;;;2.10;;
40755;SDS011;26461;45.630;9.418;2024-02-28T10:07:19;3.05;;;2.33;;
40755;SDS011;26461;45.630;9.418;2024-02-28T10:10:29;3.90;;;1.65;;
40755;SDS011;26461;45.630;9.418;2024-02-28T10:13:40;3.03;;;1.95;;
40755;SDS011;26461;45.630;9.418;2024-02-28T10:16:50;2.95;;;2.28;;
40755;SDS011;26461;45.630;9.418;2024-02-28T10:20:02;3.17;;;2.10;;
40755;SDS011;26461;45.630;9.418;2024-02-28T10:23:16;2.67;;;2.03;;
40755;SDS011;26461;45.630;9.418;2024-02-28T10:26:22;3.40;;;2.05;;
40755;SDS011;26461;45.630;9.418;2024-02-28T10:29:32;2.45;;;1.73;;
40755;SDS011;26461;45.630;9.418;2024-02-28T10:32:49;2.28;;;1.90;;
40755;SDS011;26461;45.630;9.418;2024-02-28T10:36:00;3.25;;;1.50;;
40755;SDS011;26461;45.630;9.418;2024-02-28T10:39:11;2.75;;;1.65;;
40755;SDS011;26461;45.630;9.418;2024-02-28T10:42:22;2.05;;;1.45;;
40755;SDS011;26461;45.630;9.418;2024-02-28T10:45:36;3.53;;;1.60;;
40755;SDS011;26461;45.630;9.418;2024-02-28T10:48:50;3.33;;;1.50;;
40755;SDS011;26461;45.630;9.418;2024-02-28T10:52:02;2.20;;;1.85;;
40755;SDS011;26461;45.630;9.418;2024-02-28T10:55:18;2.92;;;1.90;;
40755;SDS011;26461;45.630;9.418;2024-02-28T10:58:37;2.88;;;2.17;;
40755;SDS011;26461;45.630;9.418;2024-02-28T11:01:55;8.00;;;2.95;;
40755;SDS011;26461;45.630;9.418;2024-02-28T11:05:06;3.70;;;2.63;;
40755;SDS011;26461;45.630;9.418;2024-02-28T11:08:20;3.72;;;2.50;;
40755;SDS011;26461;45.630;9.418;2024-02-28T11:11:33;5.40;;;3.60;;
40755;SDS011;26461;45.630;9.418;2024-02-28T11:14:43;5.28;;;3.15;;
40755;SDS011;26461;45.630;9.418;2024-02-28T11:17:53;4.00;;;3.22;;
40755;SDS011;26461;45.630;9.418;2024-02-28T11:21:14;3.83;;;2.85;;
40755;SDS011;26461;45.630;9.418;2024-02-28T11:24:25;4.18;;;2.80;;
40755;SDS011;26461;45.630;9.418;2024-02-28T11:27:49;3.97;;;3.13;;
40755;SDS011;26461;45.630;9.418;2024-02-28T11:31:00;3.80;;;3.30;;
40755;SDS011;26461;45.630;9.418;2024-02-28T11:34:11;3.75;;;3.15;;
40755;SDS011;26461;45.630;9.418;2024-02-28T11:37:21;4.40;;;3.97;;
40755;SDS011;26461;45.630;9.418;2024-02-28T11:40:32;5.03;;;3.40;;
40755;SDS011;26461;45.630;9.418;2024-02-28T11:43:42;3.65;;;3.17;;
40755;SDS011;26461;45.630;9.418;2024-02-28T11:46:53;4.53;;;3.97;;
40755;SDS011;26461;45.630;9.418;2024-02-28T11:50:03;3.92;;;3.17;;
40755;SDS011;26461;45.630;9.418;2024-02-28T11:53:14;4.00;;;3.08;;
40755;SDS011;26461;45.630;9.418;2024-02-28T11:56:24;4.85;;;3.35;;
40755;SDS011;26461;45.630;9.418;2024-02-28T11:59:30;3.85;;;3.35;;
40755;SDS011;26461;45.630;9.418;2024-02-28T12:02:40;5.10;;;2.20;;
40755;SDS011;26461;45.630;9.418;2024-02-28T12:05:51;3.90;;;2.60;;
40755;SDS011;26461;45.630;9.418;2024-02-28T12:09:03;3.42;;;2.63;;
40755;SDS011;26461;45.630;9.418;2024-02-28T12:12:18;6.05;;;2.53;;
40755;SDS011;26461;45.630;9.418;2024-02-28T12:15:29;3.17;;;2.22;;
40755;SDS011;26461;45.630;9.418;2024-02-28T12:18:40;4.50;;;2.22;;
40755;SDS011;26461;45.630;9.418;2024-02-28T12:21:50;3.25;;;1.77;;
40755;SDS011;26461;45.630;9.418;2024-02-28T12:25:00;2.28;;;1.30;;
40755;SDS011;26461;45.630;9.418;2024-02-28T12:28:14;4.18;;;1.40;;
40755;SDS011;26461;45.630;9.418;2024-02-28T12:31:25;2.15;;;1.48;;
40755;SDS011;26461;45.630;9.418;2024-02-28T12:34:36;2.10;;;1.48;;
40755;SDS011;26461;45.630;9.418;2024-02-28T12:37:47;2.75;;;1.88;;
40755;SDS011;26461;45.630;9.418;2024-02-28T12:40:58;1.80;;;1.50;;
40755;SDS011;26461;45.630;9.418;2024-02-28T12:44:04;2.83;;;1.80;;
40755;SDS011;26461;45.630;9.418;2024-02-28T12:47:15;3.17;;;2.13;;
40755;SDS011;26461;45.630;9.418;2024-02-28T12:50:26;2.85;;;1.83;;
40755;SDS011;26461;45.630;9.418;2024-02-28T12:53:36;7.22;;;1.73;;
40755;SDS011;26461;45.630;9.418;2024-02-28T12:56:47;2.40;;;1.90;;
40755;SDS011;26461;45.630;9.418;2024-02-28T12:59:58;2.47;;;1.80;;
40755;SDS011;26461;45.630;9.418;2024-02-28T13:03:08;4.88;;;2.22;;
40755;SDS011;26461;45.630;9.418;2024-02-28T13:06:13;2.50;;;1.80;;
40755;SDS011;26461;45.630;9.418;2024-02-28T13:09:24;2.42;;;1.60;;
40755;SDS011;26461;45.630;9.418;2024-02-28T13:12:35;4.55;;;2.08;;
40755;SDS011;26461;45.630;9.418;2024-02-28T13:15:45;3.10;;;1.85;;
40755;SDS011;26461;45.630;9.418;2024-02-28T13:18:56;2.40;;;1.50;;
40755;SDS011;26461;45.630;9.418;2024-02-28T13:22:06;1.65;;;1.05;;
40755;SDS011;26461;45.630;9.418;2024-02-28T13:25:16;2.85;;;1.83;;
40755;SDS011;26461;45.630;9.418;2024-02-28T13:28:29;1.80;;;1.20;;
40755;SDS011;26461;45.630;9.418;2024-02-28T13:31:39;1.70;;;1.38;;
40755;SDS011;26461;45.630;9.418;2024-02-28T13:34:50;1.90;;;1.50;;
40755;SDS011;26461;45.630;9.418;2024-02-28T13:38:00;1.75;;;1.33;;
40755;SDS011;26461;45.630;9.418;2024-02-28T13:41:06;2.47;;;1.90;;
40755;SDS011;26461;45.630;9.418;2024-02-28T13:44:20;2.15;;;1.65;;
40755;SDS011;26461;45.630;9.418;2024-02-28T13:47:30;3.38;;;1.77;;
40755;SDS011;26461;45.630;9.418;2024-02-28T13:50:40;2.45;;;1.60;;
40755;SDS011;26461;45.630;9.418;2024-02-28T13:53:51;4.30;;;2.40;;
40755;SDS011;26461;45.630;9.418;2024-02-28T13:57:03;3.58;;;2.70;;
40755;SDS011;26461;45.630;9.418;2024-02-28T14:00:14;3.97;;;2.83;;
40755;SDS011;26461;45.630;9.418;2024-02-28T14:03:25;5.13;;;3.42;;
40755;SDS011;26461;45.630;9.418;2024-02-28T14:06:36;4.35;;;2.97;;
40755;SDS011;26461;45.630;9.418;2024-02-28T14:09:46;4.25;;;3.33;;
40755;SDS011;26461;45.630;9.418;2024-02-28T14:12:56;3.80;;;3.17;;
40755;SDS011;26461;45.630;9.418;2024-02-28T14:16:08;3.58;;;3.45;;
40755;SDS011;26461;45.630;9.418;2024-02-28T14:19:19;15.27;;;4.55;;
40755;SDS011;26461;45.630;9.418;2024-02-28T14:22:29;6.55;;;4.90;;
40755;SDS011;26461;45.630;9.418;2024-02-28T14:25:39;7.25;;;4.80;;
40755;SDS011;26461;45.630;9.418;2024-02-28T14:28:51;6.00;;;5.05;;
40755;SDS011;26461;45.630;9.418;2024-02-28T14:32:01;9.05;;;4.90;;
40755;SDS011;26461;45.630;9.418;2024-02-28T14:35:12;8.30;;;4.70;;
40755;SDS011;26461;45.630;9.418;2024-02-28T14:38:22;6.15;;;5.03;;
40755;SDS011;26461;45.630;9.418;2024-02-28T14:41:32;6.13;;;4.50;;
40755;SDS011;26461;45.630;9.418;2024-02-28T14:44:44;4.82;;;4.00;;
40755;SDS011;26461;45.630;9.418;2024-02-28T14:47:55;5.88;;;4.18;;
40755;SDS011;26461;45.630;9.418;2024-02-28T14:51:05;4.53;;;4.05;;
40755;SDS011;26461;45.630;9.418;2024-02-28T14:54:16;5.25;;;3.75;;
40755;SDS011;26461;45.630;9.418;2024-02-28T14:57:27;6.68;;;4.35;;
40755;SDS011;26461;45.630;9.418;2024-02-28T15:00:41;4.30;;;3.90;;
40755;SDS011;26461;45.630;9.418;2024-02-28T15:03:52;5.72;;;4.15;;
40755;SDS011;26461;45.630;9.418;2024-02-28T15:07:02;5.38;;;4.38;;
40755;SDS011;26461;45.630;9.418;2024-02-28T15:10:13;6.15;;;4.20;;
40755;SDS011;26461;45.630;9.418;2024-02-28T15:13:23;5.25;;;3.88;;
40755;SDS011;26461;45.630;9.418;2024-02-28T15:16:34;8.75;;;4.22;;
40755;SDS011;26461;45.630;9.418;2024-02-28T15:19:44;7.07;;;5.13;;
40755;SDS011;26461;45.630;9.418;2024-02-28T15:22:54;6.80;;;5.28;;
40755;SDS011;26461;45.630;9.418;2024-02-28T15:26:00;11.50;;;5.30;;
40755;SDS011;26461;45.630;9.418;2024-02-28T15:29:06;8.70;;;6.60;;
40755;SDS011;26461;45.630;9.418;2024-02-28T15:32:12;7.85;;;6.95;;
40755;SDS011;26461;45.630;9.418;2024-02-28T15:35:23;8.65;;;5.78;;
40755;SDS011;26461;45.630;9.418;2024-02-28T15:38:28;6.55;;;5.32;;
40755;SDS011;26461;45.630;9.418;2024-02-28T15:41:34;6.93;;;6.38;;
40755;SDS011;26461;45.630;9.418;2024-02-28T15:44:44;9.82;;;6.53;;
40755;SDS011;26461;45.630;9.418;2024-02-28T15:47:55;7.95;;;6.25;;
40755;SDS011;26461;45.630;9.418;2024-02-28T15:51:05;6.32;;;5.70;;
40755;SDS011;26461;45.630;9.418;2024-02-28T15:54:16;5.35;;;4.68;;
40755;SDS011;26461;45.630;9.418;2024-02-28T15:57:26;5.60;;;4.40;;
40755;SDS011;26461;45.630;9.418;2024-02-28T16:00:37;8.95;;;5.57;;
40755;SDS011;26461;45.630;9.418;2024-02-28T16:03:47;7.18;;;4.47;;
40755;SDS011;26461;45.630;9.418;2024-02-28T16:06:58;6.75;;;4.80;;
40755;SDS011;26461;45.630;9.418;2024-02-28T16:10:10;4.45;;;4.05;;
40755;SDS011;26461;45.630;9.418;2024-02-28T16:13:16;5.38;;;3.70;;
40755;SDS011;26461;45.630;9.418;2024-02-28T16:16:26;6.70;;;5.03;;
40755;SDS011;26461;45.630;9.418;2024-02-28T16:19:36;6.35;;;4.53;;
40755;SDS011;26461;45.630;9.418;2024-02-28T16:22:42;6.13;;;4.05;;
40755;SDS011;26461;45.630;9.418;2024-02-28T16:25:52;7.60;;;5.13;;
40755;SDS011;26461;45.630;9.418;2024-02-28T16:29:08;6.07;;;4.28;;
40755;SDS011;26461;45.630;9.418;2024-02-28T16:32:19;5.50;;;4.13;;
40755;SDS011;26461;45.630;9.418;2024-02-28T16:35:29;4.45;;;3.78;;
40755;SDS011;26461;45.630;9.418;2024-02-28T16:38:40;6.15;;;4.70;;
40755;SDS011;26461;45.630;9.418;2024-02-28T16:41:50;5.40;;;3.60;;
40755;SDS011;26461;45.630;9.418;2024-02-28T16:45:01;6.50;;;4.57;;
40755;SDS011;26461;45.630;9.418;2024-02-28T16:48:12;5.18;;;3.67;;
40755;SDS011;26461;45.630;9.418;2024-02-28T16:51:23;7.40;;;3.63;;
40755;SDS011;26461;45.630;9.418;2024-02-28T16:54:33;5.15;;;3.80;;
40755;SDS011;26461;45.630;9.418;2024-02-28T16:57:44;3.67;;;3.28;;
40755;SDS011;26461;45.630;9.418;2024-02-28T17:00:57;4.32;;;3.45;;
40755;SDS011;26461;45.630;9.418;2024-02-28T17:04:07;6.03;;;3.55;;
40755;SDS011;26461;45.630;9.418;2024-02-28T17:07:18;5.32;;;3.60;;
40755;SDS011;26461;45.630;9.418;2024-02-28T17:10:28;5.32;;;3.70;;
40755;SDS011;26461;45.630;9.418;2024-02-28T17:13:42;7.78;;;4.13;;
40755;SDS011;26461;45.630;9.418;2024-02-28T17:16:53;8.38;;;5.18;;
40755;SDS011;26461;45.630;9.418;2024-02-28T17:19:59;5.65;;;4.25;;
40755;SDS011;26461;45.630;9.418;2024-02-28T17:23:10;6.55;;;3.92;;
40755;SDS011;26461;45.630;9.418;2024-02-28T17:26:20;6.63;;;4.55;;
40755;SDS011;26461;45.630;9.418;2024-02-28T17:29:30;6.40;;;4.95;;
40755;SDS011;26461;45.630;9.418;2024-02-28T17:32:42;6.97;;;4.30;;
40755;SDS011;26461;45.630;9.418;2024-02-28T17:35:53;5.90;;;4.00;;
40755;SDS011;26461;45.630;9.418;2024-02-28T17:39:05;6.45;;;3.88;;
40755;SDS011;26461;45.630;9.418;2024-02-28T17:42:10;6.68;;;5.03;;
40755;SDS011;26461;45.630;9.418;2024-02-28T17:45:16;6.70;;;5.10;;
40755;SDS011;26461;45.630;9.418;2024-02-28T17:48:27;4.72;;;4.18;;
40755;SDS011;26461;45.630;9.418;2024-02-28T17:51:44;6.70;;;4.93;;
40755;SDS011;26461;45.630;9.418;2024-02-28T17:54:57;5.20;;;4.57;;
40755;SDS011;26461;45.630;9.418;2024-02-28T17:58:08;5.05;;;4.45;;
40755;SDS011;26461;45.630;9.418;2024-02-28T18:01:19;8.02;;;4.57;;
40755;SDS011;26461;45.630;9.418;2024-02-28T18:04:31;8.82;;;4.20;;
40755;SDS011;26461;45.630;9.418;2024-02-28T18:07:41;11.38;;;5.38;;
40755;SDS011;26461;45.630;9.418;2024-02-28T18:10:52;7.10;;;5.68;;
40755;SDS011;26461;45.630;9.418;2024-02-28T18:13:57;9.07;;;5.28;;
40755;SDS011;26461;45.630;9.418;2024-02-28T18:17:07;7.30;;;5.45;;
40755;SDS011;26461;45.630;9.418;2024-02-28T18:20:17;6.13;;;5.13;;
40755;SDS011;26461;45.630;9.418;2024-02-28T18:23:27;6.03;;;4.63;;
40755;SDS011;26461;45.630;9.418;2024-02-28T18:26:38;6.10;;;5.00;;
40755;SDS011;26461;45.630;9.418;2024-02-28T18:29:48;8.27;;;5.97;;
40755;SDS011;26461;45.630;9.418;2024-02-28T18:32:59;7.25;;;6.05;;
40755;SDS011;26461;45.630;9.418;2024-02-28T18:36:09;11.73;;;6.80;;
40755;SDS011;26461;45.630;9.418;2024-02-28T18:39:20;8.48;;;7.10;;
40755;SDS011;26461;45.630;9.418;2024-02-28T18:42:30;12.38;;;9.27;;
40755;SDS011;26461;45.630;9.418;2024-02-28T18:45:40;12.75;;;9.90;;
40755;SDS011;26461;45.630;9.418;2024-02-28T18:48:51;10.85;;;7.68;;
40755;SDS011;26461;45.630;9.418;2024-02-28T18:52:02;7.40;;;6.95;;
40755;SDS011;26461;45.630;9.418;2024-02-28T18:55:12;9.23;;;7.47;;
40755;SDS011;26461;45.630;9.418;2024-02-28T18:58:23;13.18;;;8.07;;
40755;SDS011;26461;45.630;9.418;2024-02-28T19:01:33;8.70;;;7.00;;
40755;SDS011;26461;45.630;9.418;2024-02-28T19:04:39;7.70;;;6.60;;